sensor_id;sensor_type;location;lat;lon;timestamp;P1;durP1;ratioP1;P2;durP2;ratioP2
315;SDS011;14128;48.686;9.738;2023-06-26T00:01:57;7.33;;;6.97;;
315;SDS011;14128;48.686;9.738;2023-06-26T00:04:24;9.30;;;7.33;;
315;SDS011;14128;48.686;9.738;2023-06-26T00:06:51;10.00;;;9.37;;
315;SDS011;14128;48.686;9.738;2023-06-26T00:09:18;9.23;;;7.83;;
315;SDS011;14128;48.686;9.738;2023-06-26T00:11:45;9.40;;;7.73;;
315;SDS011;14128;48.686;9.738;2023-06-26T00:14:13;9.73;;;7.97;;
315;SDS011;14128;48.686;9.738;2023-06-26T00:16:40;10.87;;;8.70;;
315;SDS011;14128;48.686;9.738;2023-06-26T00:19:07;7.93;;;7.10;;
315;SDS011;14128;48.686;9.738;2023-06-26T00:21:34;8.13;;;7.80;;
315;SDS011;14128;48.686;9.738;2023-06-26T00:24:01;9.73;;;8.50;;
315;SDS011;14128;48.686;9.738;2023-06-26T00:26:28;8.70;;;7.93;;
315;SDS011;14128;48.686;9.738;2023-06-26T00:28:54;7.90;;;6.40;;
315;SDS011;14128;48.686;9.738;2023-06-26T00:31:23;9.73;;;6.67;;
315;SDS011;14128;48.686;9.738;2023-06-26T00:33:49;7.23;;;6.53;;
315;SDS011;14128;48.686;9.738;2023-06-26T00:36:16;9.57;;;7.53;;
315;SDS011;14128;48.686;9.738;2023-06-26T00:38:43;9.13;;;7.30;;
315;SDS011;14128;48.686;9.738;2023-06-26T00:41:10;8.73;;;8.23;;
315;SDS011;14128;48.686;9.738;2023-06-26T00:43:38;9.50;;;8.53;;
315;SDS011;14128;48.686;9.738;2023-06-26T00:46:06;9.97;;;7.40;;
315;SDS011;14128;48.686;9.738;2023-06-26T00:48:37;9.53;;;7.43;;
315;SDS011;14128;48.686;9.738;2023-06-26T00:51:05;8.67;;;8.07;;
315;SDS011;14128;48.686;9.738;2023-06-26T00:53:32;8.90;;;7.67;;
315;SDS011;14128;48.686;9.738;2023-06-26T00:56:00;11.30;;;8.87;;
315;SDS011;14128;48.686;9.738;2023-06-26T00:58:27;9.10;;;7.37;;
315;SDS011;14128;48.686;9.738;2023-06-26T01:00:54;8.53;;;7.60;;
315;SDS011;14128;48.686;9.738;2023-06-26T01:03:22;7.87;;;6.80;;
315;SDS011;14128;48.686;9.738;2023-06-26T01:05:51;10.60;;;8.40;;
315;SDS011;14128;48.686;9.738;2023-06-26T01:08:18;9.90;;;7.77;;
315;SDS011;14128;48.686;9.738;2023-06-26T01:10:46;8.17;;;6.73;;
315;SDS011;14128;48.686;9.738;2023-06-26T01:13:14;9.60;;;8.20;;
315;SDS011;14128;48.686;9.738;2023-06-26T01:15:41;8.73;;;7.00;;
315;SDS011;14128;48.686;9.738;2023-06-26T01:18:08;9.10;;;8.00;;
315;SDS011;14128;48.686;9.738;2023-06-26T01:20:36;8.27;;;7.80;;
315;SDS011;14128;48.686;9.738;2023-06-26T01:23:14;9.07;;;7.53;;
315;SDS011;14128;48.686;9.738;2023-06-26T01:25:51;11.10;;;7.83;;
315;SDS011;14128;48.686;9.738;2023-06-26T01:28:27;7.77;;;6.73;;
315;SDS011;14128;48.686;9.738;2023-06-26T01:30:54;7.60;;;6.43;;
315;SDS011;14128;48.686;9.738;2023-06-26T01:33:21;9.00;;;8.07;;
315;SDS011;14128;48.686;9.738;2023-06-26T01:35:48;9.07;;;8.23;;
315;SDS011;14128;48.686;9.738;2023-06-26T01:38:16;7.70;;;7.30;;
315;SDS011;14128;48.686;9.738;2023-06-26T01:40:45;10.30;;;7.87;;
315;SDS011;14128;48.686;9.738;2023-06-26T01:43:15;14.10;;;7.77;;
315;SDS011;14128;48.686;9.738;2023-06-26T01:45:56;9.20;;;8.07;;
315;SDS011;14128;48.686;9.738;2023-06-26T01:48:27;10.30;;;8.40;;
315;SDS011;14128;48.686;9.738;2023-06-26T01:50:58;11.03;;;7.80;;
315;SDS011;14128;48.686;9.738;2023-06-26T01:53:25;7.77;;;7.30;;
315;SDS011;14128;48.686;9.738;2023-06-26T01:55:59;10.17;;;8.80;;
315;SDS011;14128;48.686;9.738;2023-06-26T01:58:31;9.03;;;7.77;;
315;SDS011;14128;48.686;9.738;2023-06-26T02:01:00;9.43;;;7.90;;
315;SDS011;14128;48.686;9.738;2023-06-26T02:03:27;8.77;;;7.67;;
315;SDS011;14128;48.686;9.738;2023-06-26T02:05:55;8.97;;;8.50;;
315;SDS011;14128;48.686;9.738;2023-06-26T02:08:22;9.30;;;7.97;;
315;SDS011;14128;48.686;9.738;2023-06-26T02:10:49;8.50;;;7.40;;
315;SDS011;14128;48.686;9.738;2023-06-26T02:13:15;8.63;;;7.17;;
315;SDS011;14128;48.686;9.738;2023-06-26T02:15:42;11.03;;;8.40;;
315;SDS011;14128;48.686;9.738;2023-06-26T02:18:10;10.60;;;8.20;;
315;SDS011;14128;48.686;9.738;2023-06-26T02:20:37;11.43;;;8.20;;
315;SDS011;14128;48.686;9.738;2023-06-26T02:23:04;10.40;;;6.93;;
315;SDS011;14128;48.686;9.738;2023-06-26T02:25:31;8.30;;;6.63;;
315;SDS011;14128;48.686;9.738;2023-06-26T02:27:58;9.77;;;6.80;;
315;SDS011;14128;48.686;9.738;2023-06-26T02:30:25;10.03;;;8.93;;
315;SDS011;14128;48.686;9.738;2023-06-26T02:32:52;9.77;;;7.70;;
315;SDS011;14128;48.686;9.738;2023-06-26T02:35:20;8.53;;;7.27;;
315;SDS011;14128;48.686;9.738;2023-06-26T02:37:47;9.40;;;8.30;;
315;SDS011;14128;48.686;9.738;2023-06-26T02:40:14;10.23;;;8.13;;
315;SDS011;14128;48.686;9.738;2023-06-26T02:42:40;10.80;;;9.07;;
315;SDS011;14128;48.686;9.738;2023-06-26T02:45:08;10.80;;;8.37;;
315;SDS011;14128;48.686;9.738;2023-06-26T02:47:35;9.23;;;7.60;;
315;SDS011;14128;48.686;9.738;2023-06-26T02:50:04;8.40;;;7.50;;
315;SDS011;14128;48.686;9.738;2023-06-26T02:52:33;10.33;;;9.13;;
315;SDS011;14128;48.686;9.738;2023-06-26T02:55:00;11.20;;;8.60;;
315;SDS011;14128;48.686;9.738;2023-06-26T02:57:27;11.40;;;8.50;;
315;SDS011;14128;48.686;9.738;2023-06-26T02:59:53;10.37;;;7.27;;
315;SDS011;14128;48.686;9.738;2023-06-26T03:02:20;9.53;;;7.87;;
315;SDS011;14128;48.686;9.738;2023-06-26T03:04:47;10.07;;;8.20;;
315;SDS011;14128;48.686;9.738;2023-06-26T03:07:15;8.97;;;7.63;;
315;SDS011;14128;48.686;9.738;2023-06-26T03:09:43;9.37;;;8.00;;
315;SDS011;14128;48.686;9.738;2023-06-26T03:12:10;8.30;;;7.77;;
315;SDS011;14128;48.686;9.738;2023-06-26T03:14:36;7.93;;;7.17;;
315;SDS011;14128;48.686;9.738;2023-06-26T03:17:03;10.00;;;8.30;;
315;SDS011;14128;48.686;9.738;2023-06-26T03:19:32;9.40;;;7.90;;
315;SDS011;14128;48.686;9.738;2023-06-26T03:21:59;9.40;;;7.90;;
315;SDS011;14128;48.686;9.738;2023-06-26T03:24:26;8.53;;;7.23;;
315;SDS011;14128;48.686;9.738;2023-06-26T03:26:54;11.10;;;7.40;;
315;SDS011;14128;48.686;9.738;2023-06-26T03:29:20;8.20;;;7.30;;
315;SDS011;14128;48.686;9.738;2023-06-26T03:31:47;9.63;;;8.10;;
315;SDS011;14128;48.686;9.738;2023-06-26T03:34:14;10.27;;;8.53;;
315;SDS011;14128;48.686;9.738;2023-06-26T03:36:41;9.77;;;8.23;;
315;SDS011;14128;48.686;9.738;2023-06-26T03:39:08;7.73;;;6.93;;
315;SDS011;14128;48.686;9.738;2023-06-26T03:41:34;11.20;;;8.60;;
315;SDS011;14128;48.686;9.738;2023-06-26T03:44:03;7.60;;;6.90;;
315;SDS011;14128;48.686;9.738;2023-06-26T03:46:30;8.67;;;8.17;;
315;SDS011;14128;48.686;9.738;2023-06-26T03:48:56;11.20;;;7.23;;
315;SDS011;14128;48.686;9.738;2023-06-26T03:51:23;13.10;;;8.43;;
315;SDS011;14128;48.686;9.738;2023-06-26T03:53:50;10.30;;;7.83;;
315;SDS011;14128;48.686;9.738;2023-06-26T03:56:17;11.53;;;8.00;;
315;SDS011;14128;48.686;9.738;2023-06-26T03:58:44;9.27;;;6.90;;
315;SDS011;14128;48.686;9.738;2023-06-26T04:01:12;8.20;;;6.93;;
315;SDS011;14128;48.686;9.738;2023-06-26T04:03:39;8.60;;;7.90;;
315;SDS011;14128;48.686;9.738;2023-06-26T04:06:05;7.67;;;7.13;;
315;SDS011;14128;48.686;9.738;2023-06-26T04:08:32;8.27;;;5.87;;
315;SDS011;14128;48.686;9.738;2023-06-26T04:10:59;8.20;;;7.80;;
315;SDS011;14128;48.686;9.738;2023-06-26T04:13:26;10.70;;;7.80;;
315;SDS011;14128;48.686;9.738;2023-06-26T04:15:53;8.70;;;7.40;;
315;SDS011;14128;48.686;9.738;2023-06-26T04:18:21;8.90;;;7.20;;
315;SDS011;14128;48.686;9.738;2023-06-26T04:21:03;9.93;;;8.83;;
315;SDS011;14128;48.686;9.738;2023-06-26T04:23:33;9.27;;;8.10;;
315;SDS011;14128;48.686;9.738;2023-06-26T04:26:00;11.33;;;8.60;;
315;SDS011;14128;48.686;9.738;2023-06-26T04:28:27;9.93;;;7.50;;
315;SDS011;14128;48.686;9.738;2023-06-26T04:30:54;8.97;;;7.90;;
315;SDS011;14128;48.686;9.738;2023-06-26T04:33:22;9.40;;;7.37;;
315;SDS011;14128;48.686;9.738;2023-06-26T04:35:49;9.10;;;7.70;;
315;SDS011;14128;48.686;9.738;2023-06-26T04:38:16;10.67;;;8.10;;
315;SDS011;14128;48.686;9.738;2023-06-26T04:40:43;14.13;;;8.47;;
315;SDS011;14128;48.686;9.738;2023-06-26T04:43:09;11.07;;;7.27;;
315;SDS011;14128;48.686;9.738;2023-06-26T04:45:36;9.07;;;7.57;;
315;SDS011;14128;48.686;9.738;2023-06-26T04:48:04;14.20;;;8.63;;
315;SDS011;14128;48.686;9.738;2023-06-26T04:50:32;9.27;;;8.33;;
315;SDS011;14128;48.686;9.738;2023-06-26T04:53:00;9.23;;;7.90;;
315;SDS011;14128;48.686;9.738;2023-06-26T04:55:27;9.13;;;7.57;;
315;SDS011;14128;48.686;9.738;2023-06-26T04:57:55;10.60;;;8.13;;
315;SDS011;14128;48.686;9.738;2023-06-26T05:00:22;15.00;;;7.83;;
315;SDS011;14128;48.686;9.738;2023-06-26T05:02:49;9.03;;;7.30;;
315;SDS011;14128;48.686;9.738;2023-06-26T05:05:24;11.00;;;8.10;;
315;SDS011;14128;48.686;9.738;2023-06-26T05:07:53;8.90;;;7.27;;
315;SDS011;14128;48.686;9.738;2023-06-26T05:10:21;8.63;;;7.63;;
315;SDS011;14128;48.686;9.738;2023-06-26T05:12:48;7.43;;;6.73;;
315;SDS011;14128;48.686;9.738;2023-06-26T05:15:15;8.27;;;7.30;;
315;SDS011;14128;48.686;9.738;2023-06-26T05:17:42;11.10;;;8.93;;
315;SDS011;14128;48.686;9.738;2023-06-26T05:20:09;10.53;;;8.50;;
315;SDS011;14128;48.686;9.738;2023-06-26T05:22:36;9.70;;;7.77;;
315;SDS011;14128;48.686;9.738;2023-06-26T05:25:06;8.47;;;6.80;;
315;SDS011;14128;48.686;9.738;2023-06-26T05:27:35;10.57;;;8.00;;
315;SDS011;14128;48.686;9.738;2023-06-26T05:30:03;10.50;;;7.63;;
315;SDS011;14128;48.686;9.738;2023-06-26T05:32:30;8.77;;;7.07;;
315;SDS011;14128;48.686;9.738;2023-06-26T05:35:00;9.67;;;7.73;;
315;SDS011;14128;48.686;9.738;2023-06-26T05:37:30;7.77;;;6.77;;
315;SDS011;14128;48.686;9.738;2023-06-26T05:39:58;9.43;;;7.87;;
315;SDS011;14128;48.686;9.738;2023-06-26T05:42:27;9.93;;;8.30;;
315;SDS011;14128;48.686;9.738;2023-06-26T05:54:15;8.10;;;7.70;;
315;SDS011;14128;48.686;9.738;2023-06-26T05:56:42;7.90;;;7.00;;
315;SDS011;14128;48.686;9.738;2023-06-26T05:59:11;9.63;;;7.67;;
315;SDS011;14128;48.686;9.738;2023-06-26T06:01:40;7.63;;;7.23;;
315;SDS011;14128;48.686;9.738;2023-06-26T06:04:07;8.80;;;7.50;;
315;SDS011;14128;48.686;9.738;2023-06-26T06:06:33;8.53;;;7.30;;
315;SDS011;14128;48.686;9.738;2023-06-26T06:09:00;12.83;;;8.97;;
315;SDS011;14128;48.686;9.738;2023-06-26T06:11:28;7.07;;;6.70;;
315;SDS011;14128;48.686;9.738;2023-06-26T06:13:55;9.93;;;8.60;;
315;SDS011;14128;48.686;9.738;2023-06-26T06:16:25;7.47;;;7.07;;
315;SDS011;14128;48.686;9.738;2023-06-26T06:18:54;9.53;;;8.20;;
315;SDS011;14128;48.686;9.738;2023-06-26T06:21:21;9.33;;;8.07;;
315;SDS011;14128;48.686;9.738;2023-06-26T06:23:47;9.33;;;6.70;;
315;SDS011;14128;48.686;9.738;2023-06-26T06:26:14;7.80;;;7.40;;
315;SDS011;14128;48.686;9.738;2023-06-26T06:28:41;6.77;;;6.37;;
315;SDS011;14128;48.686;9.738;2023-06-26T06:31:08;8.53;;;7.70;;
315;SDS011;14128;48.686;9.738;2023-06-26T06:33:36;7.80;;;7.03;;
315;SDS011;14128;48.686;9.738;2023-06-26T06:36:03;10.17;;;8.17;;
315;SDS011;14128;48.686;9.738;2023-06-26T06:38:30;7.77;;;6.93;;
315;SDS011;14128;48.686;9.738;2023-06-26T06:40:57;7.73;;;7.37;;
315;SDS011;14128;48.686;9.738;2023-06-26T06:43:24;10.90;;;8.10;;
315;SDS011;14128;48.686;9.738;2023-06-26T06:45:51;9.83;;;7.90;;
315;SDS011;14128;48.686;9.738;2023-06-26T06:48:18;8.10;;;7.50;;
315;SDS011;14128;48.686;9.738;2023-06-26T06:50:46;8.67;;;8.13;;
315;SDS011;14128;48.686;9.738;2023-06-26T06:53:13;10.13;;;7.73;;
315;SDS011;14128;48.686;9.738;2023-06-26T06:55:39;10.10;;;8.77;;
315;SDS011;14128;48.686;9.738;2023-06-26T06:58:06;10.80;;;8.40;;
315;SDS011;14128;48.686;9.738;2023-06-26T07:00:33;8.10;;;7.70;;
315;SDS011;14128;48.686;9.738;2023-06-26T07:03:00;8.20;;;6.90;;
315;SDS011;14128;48.686;9.738;2023-06-26T07:05:26;10.57;;;8.00;;
315;SDS011;14128;48.686;9.738;2023-06-26T07:07:55;11.73;;;7.57;;
315;SDS011;14128;48.686;9.738;2023-06-26T07:10:22;7.97;;;7.57;;
315;SDS011;14128;48.686;9.738;2023-06-26T07:12:48;8.93;;;8.30;;
315;SDS011;14128;48.686;9.738;2023-06-26T07:15:16;9.33;;;8.47;;
315;SDS011;14128;48.686;9.738;2023-06-26T07:17:43;7.93;;;6.27;;
315;SDS011;14128;48.686;9.738;2023-06-26T07:20:10;8.80;;;8.30;;
315;SDS011;14128;48.686;9.738;2023-06-26T07:22:40;9.03;;;6.93;;
315;SDS011;14128;48.686;9.738;2023-06-26T07:25:09;8.93;;;7.37;;
315;SDS011;14128;48.686;9.738;2023-06-26T07:27:36;11.03;;;8.47;;
315;SDS011;14128;48.686;9.738;2023-06-26T07:30:03;8.70;;;7.27;;
315;SDS011;14128;48.686;9.738;2023-06-26T07:32:30;8.60;;;7.37;;
315;SDS011;14128;48.686;9.738;2023-06-26T07:34:57;8.50;;;6.87;;
315;SDS011;14128;48.686;9.738;2023-06-26T07:37:24;10.70;;;6.77;;
315;SDS011;14128;48.686;9.738;2023-06-26T07:39:51;10.80;;;7.23;;
315;SDS011;14128;48.686;9.738;2023-06-26T07:42:19;7.87;;;7.10;;
315;SDS011;14128;48.686;9.738;2023-06-26T07:44:46;7.70;;;7.30;;
315;SDS011;14128;48.686;9.738;2023-06-26T07:47:13;8.20;;;7.00;;
315;SDS011;14128;48.686;9.738;2023-06-26T07:49:39;8.20;;;6.63;;
315;SDS011;14128;48.686;9.738;2023-06-26T07:52:07;9.60;;;6.50;;
315;SDS011;14128;48.686;9.738;2023-06-26T07:54:35;7.17;;;6.77;;
315;SDS011;14128;48.686;9.738;2023-06-26T07:57:03;8.23;;;7.63;;
315;SDS011;14128;48.686;9.738;2023-06-26T07:59:33;10.23;;;6.60;;
315;SDS011;14128;48.686;9.738;2023-06-26T08:02:00;8.03;;;7.63;;
315;SDS011;14128;48.686;9.738;2023-06-26T08:04:28;7.20;;;6.80;;
315;SDS011;14128;48.686;9.738;2023-06-26T08:06:57;7.63;;;7.30;;
315;SDS011;14128;48.686;9.738;2023-06-26T08:09:25;7.70;;;7.30;;
315;SDS011;14128;48.686;9.738;2023-06-26T08:11:53;11.70;;;7.67;;
315;SDS011;14128;48.686;9.738;2023-06-26T08:14:20;7.33;;;6.93;;
315;SDS011;14128;48.686;9.738;2023-06-26T08:16:49;8.53;;;7.43;;
315;SDS011;14128;48.686;9.738;2023-06-26T08:19:16;8.73;;;7.77;;
315;SDS011;14128;48.686;9.738;2023-06-26T08:21:43;7.37;;;7.00;;
315;SDS011;14128;48.686;9.738;2023-06-26T08:24:12;6.73;;;6.30;;
315;SDS011;14128;48.686;9.738;2023-06-26T08:26:41;6.03;;;5.73;;
315;SDS011;14128;48.686;9.738;2023-06-26T08:29:08;7.30;;;6.90;;
315;SDS011;14128;48.686;9.738;2023-06-26T08:31:35;7.30;;;6.27;;
315;SDS011;14128;48.686;9.738;2023-06-26T08:34:04;7.37;;;6.97;;
315;SDS011;14128;48.686;9.738;2023-06-26T08:36:31;6.70;;;6.30;;
315;SDS011;14128;48.686;9.738;2023-06-26T08:38:58;8.80;;;6.90;;
315;SDS011;14128;48.686;9.738;2023-06-26T08:41:25;12.37;;;6.90;;
315;SDS011;14128;48.686;9.738;2023-06-26T08:43:52;5.90;;;5.60;;
315;SDS011;14128;48.686;9.738;2023-06-26T08:46:19;7.10;;;6.20;;
315;SDS011;14128;48.686;9.738;2023-06-26T08:48:48;6.03;;;5.83;;
315;SDS011;14128;48.686;9.738;2023-06-26T08:51:20;7.60;;;7.20;;
315;SDS011;14128;48.686;9.738;2023-06-26T08:53:52;6.87;;;6.47;;
315;SDS011;14128;48.686;9.738;2023-06-26T08:56:22;9.57;;;6.73;;
315;SDS011;14128;48.686;9.738;2023-06-26T08:58:51;5.97;;;5.67;;
315;SDS011;14128;48.686;9.738;2023-06-26T09:01:18;6.00;;;5.70;;
315;SDS011;14128;48.686;9.738;2023-06-26T09:03:46;5.37;;;5.07;;
315;SDS011;14128;48.686;9.738;2023-06-26T09:06:13;6.00;;;5.70;;
315;SDS011;14128;48.686;9.738;2023-06-26T09:08:41;6.83;;;5.90;;
315;SDS011;14128;48.686;9.738;2023-06-26T09:11:08;7.67;;;7.07;;
315;SDS011;14128;48.686;9.738;2023-06-26T09:13:34;6.13;;;5.80;;
315;SDS011;14128;48.686;9.738;2023-06-26T09:16:04;6.60;;;6.20;;
315;SDS011;14128;48.686;9.738;2023-06-26T09:18:33;6.20;;;5.80;;
315;SDS011;14128;48.686;9.738;2023-06-26T09:21:00;8.60;;;5.90;;
315;SDS011;14128;48.686;9.738;2023-06-26T09:23:33;9.13;;;5.83;;
315;SDS011;14128;48.686;9.738;2023-06-26T09:26:02;5.73;;;5.43;;
315;SDS011;14128;48.686;9.738;2023-06-26T09:28:30;6.10;;;5.80;;
315;SDS011;14128;48.686;9.738;2023-06-26T09:31:00;7.07;;;6.67;;
315;SDS011;14128;48.686;9.738;2023-06-26T09:33:32;6.63;;;6.10;;
315;SDS011;14128;48.686;9.738;2023-06-26T09:36:00;7.00;;;6.60;;
315;SDS011;14128;48.686;9.738;2023-06-26T09:38:28;6.03;;;5.77;;
315;SDS011;14128;48.686;9.738;2023-06-26T09:40:54;6.03;;;5.73;;
315;SDS011;14128;48.686;9.738;2023-06-26T09:43:23;6.13;;;5.67;;
315;SDS011;14128;48.686;9.738;2023-06-26T09:45:51;5.30;;;5.00;;
315;SDS011;14128;48.686;9.738;2023-06-26T09:48:19;6.40;;;6.03;;
315;SDS011;14128;48.686;9.738;2023-06-26T09:50:46;7.80;;;6.70;;
315;SDS011;14128;48.686;9.738;2023-06-26T09:53:13;6.13;;;5.57;;
315;SDS011;14128;48.686;9.738;2023-06-26T09:55:40;5.07;;;4.77;;
315;SDS011;14128;48.686;9.738;2023-06-26T09:58:09;6.03;;;5.73;;
315;SDS011;14128;48.686;9.738;2023-06-26T10:00:41;7.27;;;6.87;;
315;SDS011;14128;48.686;9.738;2023-06-26T10:03:09;6.80;;;6.40;;
315;SDS011;14128;48.686;9.738;2023-06-26T10:05:37;10.93;;;6.60;;
315;SDS011;14128;48.686;9.738;2023-06-26T10:08:04;6.23;;;5.70;;
315;SDS011;14128;48.686;9.738;2023-06-26T10:10:32;6.57;;;6.17;;
315;SDS011;14128;48.686;9.738;2023-06-26T10:13:02;7.63;;;6.30;;
315;SDS011;14128;48.686;9.738;2023-06-26T10:15:37;6.27;;;5.93;;
315;SDS011;14128;48.686;9.738;2023-06-26T10:18:07;7.17;;;6.77;;
315;SDS011;14128;48.686;9.738;2023-06-26T10:20:35;7.93;;;6.33;;
315;SDS011;14128;48.686;9.738;2023-06-26T10:23:02;7.13;;;6.73;;
315;SDS011;14128;48.686;9.738;2023-06-26T10:25:30;6.47;;;6.07;;
315;SDS011;14128;48.686;9.738;2023-06-26T10:27:58;6.30;;;5.87;;
315;SDS011;14128;48.686;9.738;2023-06-26T10:30:28;7.80;;;5.67;;
315;SDS011;14128;48.686;9.738;2023-06-26T10:32:57;6.00;;;5.70;;
315;SDS011;14128;48.686;9.738;2023-06-26T10:35:27;6.10;;;5.80;;
315;SDS011;14128;48.686;9.738;2023-06-26T10:37:59;9.13;;;7.97;;
315;SDS011;14128;48.686;9.738;2023-06-26T10:40:30;8.57;;;8.07;;
315;SDS011;14128;48.686;9.738;2023-06-26T10:43:07;7.60;;;7.20;;
315;SDS011;14128;48.686;9.738;2023-06-26T10:45:35;12.93;;;9.93;;
315;SDS011;14128;48.686;9.738;2023-06-26T10:48:03;9.60;;;8.33;;
315;SDS011;14128;48.686;9.738;2023-06-26T10:50:31;8.73;;;7.57;;
315;SDS011;14128;48.686;9.738;2023-06-26T10:53:07;6.63;;;6.23;;
315;SDS011;14128;48.686;9.738;2023-06-26T10:55:35;7.47;;;6.20;;
315;SDS011;14128;48.686;9.738;2023-06-26T10:58:02;6.73;;;6.33;;
315;SDS011;14128;48.686;9.738;2023-06-26T11:00:29;7.93;;;7.60;;
315;SDS011;14128;48.686;9.738;2023-06-26T11:02:57;8.37;;;6.90;;
315;SDS011;14128;48.686;9.738;2023-06-26T11:05:26;7.23;;;6.23;;
315;SDS011;14128;48.686;9.738;2023-06-26T11:08:04;7.07;;;6.27;;
315;SDS011;14128;48.686;9.738;2023-06-26T11:10:48;6.20;;;5.50;;
315;SDS011;14128;48.686;9.738;2023-06-26T11:13:16;6.33;;;5.97;;
315;SDS011;14128;48.686;9.738;2023-06-26T11:15:44;6.93;;;6.53;;
315;SDS011;14128;48.686;9.738;2023-06-26T11:18:11;6.80;;;6.20;;
315;SDS011;14128;48.686;9.738;2023-06-26T11:20:39;6.77;;;6.37;;
315;SDS011;14128;48.686;9.738;2023-06-26T11:23:07;5.97;;;5.67;;
315;SDS011;14128;48.686;9.738;2023-06-26T11:25:35;7.03;;;6.40;;
315;SDS011;14128;48.686;9.738;2023-06-26T11:28:02;6.93;;;6.53;;
315;SDS011;14128;48.686;9.738;2023-06-26T11:30:30;5.90;;;5.60;;
315;SDS011;14128;48.686;9.738;2023-06-26T11:33:04;5.10;;;4.80;;
315;SDS011;14128;48.686;9.738;2023-06-26T11:35:31;6.17;;;5.87;;
315;SDS011;14128;48.686;9.738;2023-06-26T11:37:58;6.33;;;5.97;;
315;SDS011;14128;48.686;9.738;2023-06-26T11:40:30;9.30;;;5.50;;
315;SDS011;14128;48.686;9.738;2023-06-26T11:42:59;7.03;;;6.17;;
315;SDS011;14128;48.686;9.738;2023-06-26T11:45:27;6.80;;;6.20;;
315;SDS011;14128;48.686;9.738;2023-06-26T11:47:55;7.67;;;5.40;;
315;SDS011;14128;48.686;9.738;2023-06-26T11:50:22;6.77;;;6.37;;
315;SDS011;14128;48.686;9.738;2023-06-26T11:52:53;7.73;;;6.73;;
315;SDS011;14128;48.686;9.738;2023-06-26T11:55:21;7.87;;;7.27;;
315;SDS011;14128;48.686;9.738;2023-06-26T11:57:49;8.40;;;7.57;;
315;SDS011;14128;48.686;9.738;2023-06-26T12:00:16;9.07;;;7.20;;
315;SDS011;14128;48.686;9.738;2023-06-26T12:02:44;7.37;;;6.50;;
315;SDS011;14128;48.686;9.738;2023-06-26T12:05:12;6.57;;;6.20;;
315;SDS011;14128;48.686;9.738;2023-06-26T12:07:40;7.07;;;6.67;;
315;SDS011;14128;48.686;9.738;2023-06-26T12:10:09;8.40;;;7.90;;
315;SDS011;14128;48.686;9.738;2023-06-26T12:12:38;8.53;;;7.93;;
315;SDS011;14128;48.686;9.738;2023-06-26T12:15:07;8.67;;;8.17;;
315;SDS011;14128;48.686;9.738;2023-06-26T12:17:37;12.07;;;8.50;;
315;SDS011;14128;48.686;9.738;2023-06-26T12:20:05;11.00;;;8.37;;
315;SDS011;14128;48.686;9.738;2023-06-26T12:22:43;9.23;;;8.53;;
315;SDS011;14128;48.686;9.738;2023-06-26T12:25:12;8.30;;;7.80;;
315;SDS011;14128;48.686;9.738;2023-06-26T12:27:39;9.60;;;7.40;;
315;SDS011;14128;48.686;9.738;2023-06-26T12:30:08;8.10;;;7.67;;
315;SDS011;14128;48.686;9.738;2023-06-26T12:32:35;11.63;;;8.80;;
315;SDS011;14128;48.686;9.738;2023-06-26T12:35:02;8.90;;;7.63;;
315;SDS011;14128;48.686;9.738;2023-06-26T12:37:28;8.93;;;7.47;;
315;SDS011;14128;48.686;9.738;2023-06-26T12:40:02;7.87;;;7.47;;
315;SDS011;14128;48.686;9.738;2023-06-26T12:42:32;6.97;;;6.57;;
315;SDS011;14128;48.686;9.738;2023-06-26T12:44:59;9.07;;;8.53;;
315;SDS011;14128;48.686;9.738;2023-06-26T12:47:38;8.57;;;8.10;;
315;SDS011;14128;48.686;9.738;2023-06-26T12:50:06;8.23;;;7.17;;
315;SDS011;14128;48.686;9.738;2023-06-26T12:52:34;7.17;;;6.77;;
315;SDS011;14128;48.686;9.738;2023-06-26T12:55:01;8.40;;;7.07;;
315;SDS011;14128;48.686;9.738;2023-06-26T12:57:27;9.50;;;7.80;;
315;SDS011;14128;48.686;9.738;2023-06-26T12:59:54;9.20;;;7.70;;
315;SDS011;14128;48.686;9.738;2023-06-26T13:02:22;9.97;;;7.43;;
315;SDS011;14128;48.686;9.738;2023-06-26T13:04:49;10.20;;;7.40;;
315;SDS011;14128;48.686;9.738;2023-06-26T13:07:16;7.60;;;7.20;;
315;SDS011;14128;48.686;9.738;2023-06-26T13:09:43;6.97;;;6.43;;
315;SDS011;14128;48.686;9.738;2023-06-26T13:12:11;8.03;;;7.63;;
315;SDS011;14128;48.686;9.738;2023-06-26T13:14:37;6.70;;;6.30;;
315;SDS011;14128;48.686;9.738;2023-06-26T13:17:04;7.60;;;7.20;;
315;SDS011;14128;48.686;9.738;2023-06-26T13:19:33;7.30;;;6.90;;
315;SDS011;14128;48.686;9.738;2023-06-26T13:21:59;6.60;;;6.20;;
315;SDS011;14128;48.686;9.738;2023-06-26T13:24:26;7.63;;;7.20;;
315;SDS011;14128;48.686;9.738;2023-06-26T13:26:53;8.47;;;7.50;;
315;SDS011;14128;48.686;9.738;2023-06-26T13:29:20;9.30;;;7.00;;
315;SDS011;14128;48.686;9.738;2023-06-26T13:31:47;9.50;;;7.50;;
315;SDS011;14128;48.686;9.738;2023-06-26T13:34:20;6.50;;;6.10;;
315;SDS011;14128;48.686;9.738;2023-06-26T13:36:50;9.23;;;7.00;;
315;SDS011;14128;48.686;9.738;2023-06-26T13:39:16;6.37;;;5.87;;
315;SDS011;14128;48.686;9.738;2023-06-26T13:41:43;8.93;;;6.70;;
315;SDS011;14128;48.686;9.738;2023-06-26T13:44:10;6.10;;;5.80;;
315;SDS011;14128;48.686;9.738;2023-06-26T13:46:37;8.30;;;6.70;;
315;SDS011;14128;48.686;9.738;2023-06-26T13:49:04;6.17;;;5.90;;
315;SDS011;14128;48.686;9.738;2023-06-26T13:51:31;7.20;;;6.50;;
315;SDS011;14128;48.686;9.738;2023-06-26T13:53:59;7.10;;;6.70;;
315;SDS011;14128;48.686;9.738;2023-06-26T13:56:26;6.97;;;6.57;;
315;SDS011;14128;48.686;9.738;2023-06-26T13:58:55;8.40;;;7.50;;
315;SDS011;14128;48.686;9.738;2023-06-26T14:01:23;12.47;;;7.80;;
315;SDS011;14128;48.686;9.738;2023-06-26T14:03:50;6.43;;;6.07;;
315;SDS011;14128;48.686;9.738;2023-06-26T14:06:17;8.70;;;7.20;;
315;SDS011;14128;48.686;9.738;2023-06-26T14:08:43;8.00;;;6.80;;
315;SDS011;14128;48.686;9.738;2023-06-26T14:11:11;8.53;;;7.47;;
315;SDS011;14128;48.686;9.738;2023-06-26T14:13:40;8.50;;;7.33;;
315;SDS011;14128;48.686;9.738;2023-06-26T14:16:07;8.07;;;6.23;;
315;SDS011;14128;48.686;9.738;2023-06-26T14:18:34;10.93;;;6.60;;
315;SDS011;14128;48.686;9.738;2023-06-26T14:21:01;8.00;;;6.93;;
315;SDS011;14128;48.686;9.738;2023-06-26T14:23:29;8.67;;;6.87;;
315;SDS011;14128;48.686;9.738;2023-06-26T14:25:55;7.83;;;6.47;;
315;SDS011;14128;48.686;9.738;2023-06-26T14:28:24;7.20;;;5.90;;
315;SDS011;14128;48.686;9.738;2023-06-26T14:30:50;7.80;;;6.73;;
315;SDS011;14128;48.686;9.738;2023-06-26T14:33:17;6.40;;;5.60;;
315;SDS011;14128;48.686;9.738;2023-06-26T14:35:44;7.70;;;6.00;;
315;SDS011;14128;48.686;9.738;2023-06-26T14:38:11;7.40;;;7.00;;
315;SDS011;14128;48.686;9.738;2023-06-26T14:40:38;7.83;;;5.90;;
315;SDS011;14128;48.686;9.738;2023-06-26T14:43:04;5.90;;;5.60;;
315;SDS011;14128;48.686;9.738;2023-06-26T14:45:33;6.23;;;5.97;;
315;SDS011;14128;48.686;9.738;2023-06-26T14:47:59;10.83;;;6.20;;
315;SDS011;14128;48.686;9.738;2023-06-26T14:50:26;7.77;;;6.90;;
315;SDS011;14128;48.686;9.738;2023-06-26T14:52:53;10.10;;;6.67;;
315;SDS011;14128;48.686;9.738;2023-06-26T14:55:20;6.90;;;6.50;;
315;SDS011;14128;48.686;9.738;2023-06-26T14:57:47;7.17;;;6.77;;
315;SDS011;14128;48.686;9.738;2023-06-26T15:00:14;8.10;;;6.63;;
315;SDS011;14128;48.686;9.738;2023-06-26T15:02:43;6.07;;;5.47;;
315;SDS011;14128;48.686;9.738;2023-06-26T15:05:09;7.80;;;5.77;;
315;SDS011;14128;48.686;9.738;2023-06-26T15:07:36;6.13;;;5.83;;
315;SDS011;14128;48.686;9.738;2023-06-26T15:10:03;5.30;;;5.00;;
315;SDS011;14128;48.686;9.738;2023-06-26T15:12:32;7.27;;;4.90;;
315;SDS011;14128;48.686;9.738;2023-06-26T15:14:58;5.97;;;5.60;;
315;SDS011;14128;48.686;9.738;2023-06-26T15:17:25;6.07;;;4.80;;
315;SDS011;14128;48.686;9.738;2023-06-26T15:19:53;6.70;;;5.17;;
315;SDS011;14128;48.686;9.738;2023-06-26T15:22:21;5.90;;;5.60;;
315;SDS011;14128;48.686;9.738;2023-06-26T15:24:51;5.37;;;5.07;;
315;SDS011;14128;48.686;9.738;2023-06-26T15:27:18;4.67;;;4.40;;